Nearby METAR Reports

 

KTAN - Taunton, Massachusetts, USA
Distance from station: W 5mi, 8km
Updated: Sun, 14-Aug-2022 8:52pm EDT

 
Barometer: 30.04 inHg , 1017.3 hPa
2022/08/15 00:52 KTAN 150052Z AUTO A3004 RMK AO2 SLPNO PWINO $
KPYM - Plymouth, Massachusetts, USA
Distance from station: ENE 10mi, 16km
Updated: Sun, 14-Aug-2022 8:52pm EDT
Clear
Clear
 Wind from calm
Wind: Calm
Temperature: 70°F , 21°C
Dew Point: 57°F , 14°C
Humidity: 64%
Barometer: 30.04 inHg , 1017.3 hPa
Clouds: Clear
Visibility: 10 miles , 16 km
2022/08/15 00:52 KPYM 150052Z AUTO 00000KT 10SM CLR 21/14 A3004 RMK AO2 SLP173 T02110144
 
KEWB - New Bedford, Massachusetts, USA
Distance from station: S 14mi, 23km
Updated: Sun, 14-Aug-2022 8:53pm EDT
Clear
Clear
 Wind from calm
Wind: Calm
Temperature: 66°F , 19°C
Dew Point: 61°F , 16°C
Humidity: 83%
Barometer: 30.04 inHg , 1017.3 hPa
Clouds: Clear
Visibility: 10 miles , 16 km
2022/08/15 00:53 KEWB 150053Z 00000KT 10SM CLR 19/16 A3004 RMK AO2 SLP171 T01890161
KGHG - Marshfield, Massachusetts, USA
Distance from station: NE 20mi, 31km
Updated: Sun, 14-Aug-2022 8:55pm EDT
Clear
Clear
 Wind from calm
Wind: Calm
Temperature: 66°F , 19°C
Dew Point: 59°F , 15°C
Humidity: 78%
Barometer: 30.03 inHg , 1016.9 hPa
Clouds: Clear
Visibility: 10 miles , 16 km
2022/08/15 00:55 KGHG 150055Z AUTO 00000KT 10SM CLR 19/15 A3003 RMK AO2
 
KOWD - Norwood, Massachusetts, USA
Distance from station: NNW 24mi, 39km
Updated: Sun, 14-Aug-2022 8:53pm EDT
Clear
Clear
 Wind from S
Wind: S 6 mph , 9 km/h
Temperature: 70°F , 21°C
Dew Point: 55°F , 13°C
Humidity: 60%
Barometer: 30.03 inHg , 1016.9 hPa
Clouds: Clear
Visibility: 10 miles , 16 km
2022/08/15 00:53 KOWD 150053Z 17005KT 10SM CLR 21/13 A3003 RMK AO2 SLP168 T02110128
KMQE - East Milton, Massachusetts, USA
Distance from station: NNW 25mi, 40km
Updated: Thu, 01-Jul-2021 9:51am EDT
NOT Current

 Wind from WNW
Wind: WNW 9 mph , 15 km/h
Temperature: 75°F , 24°C
Dew Point: 70°F , 21°C
Humidity: 83%
Barometer: 29.86 inHg , 1011.2 hPa
2021/07/01 13:51 KMQE 011351Z AUTO 30008KT 24/21 A2986 RMK AO1 SLP116 T02440206
 
KFMH - Falmouth/Otis Ab, Massachusetts, USA
Distance from station: SE 27mi, 44km
Updated: Sun, 14-Aug-2022 8:45pm EDT
Clear
Clear
 Wind from SW
Wind: SW 3 mph , 6 km/h
Temperature: 68°F , 20°C
Dew Point: 57°F , 14°C
Humidity: 69%
Barometer: 30.05 inHg , 1017.6 hPa
Clouds: Clear
Visibility: 10 miles , 16 km
2022/08/15 00:45 KFMH 150045Z 22003KT 10SM CLR 20/14 A3005
KPVD - Providence/Green, Rhode Island, USA
Distance from station: WSW 29mi, 47km
Updated: Sun, 14-Aug-2022 8:51pm EDT
Mostly cloudy
Mostly cloudy
 Wind from SSE
Wind: SSE 7 mph , 11 km/h
Temperature: 72°F , 22°C
Dew Point: 57°F , 14°C
Humidity: 61%
Barometer: 30.05 inHg , 1017.6 hPa
Clouds: Mostly cloudy
Visibility: 10 miles , 16 km
Cloud details: Mostly cloudy 18000 ft
Mostly cloudy 24000 ft
2022/08/15 00:51 KPVD 150051Z 16006KT 10SM BKN180 BKN240 22/14 A3005 RMK AO2 SLP173 T02170144
 
KSFZ - Pawtucket, Rhode Island, USA
Distance from station: W 30mi, 48km
Updated: Sun, 14-Aug-2022 8:56pm EDT
Clear
Clear
 Wind from SSE
Wind: SSE 3 mph , 6 km/h
Temperature: 66°F , 19°C
Dew Point: 54°F , 12°C
Humidity: 64%
Barometer: 30.05 inHg , 1017.6 hPa
Clouds: Clear
Visibility: 10 miles , 16 km
2022/08/15 00:56 KSFZ 150056Z AUTO 16003KT 10SM CLR 19/12 A3005 RMK AO2 SLP173 T01940122 $
KUUU - Newport, Rhode Island, USA
Distance from station: SW 31mi, 50km
Updated: Sun, 14-Aug-2022 8:53pm EDT
Clear
Clear
 Wind from SSW
Wind: SSW 6 mph , 9 km/h
Temperature: 70°F , 21°C
Dew Point: 59°F , 15°C
Humidity: 69%
Barometer: 30.05 inHg , 1017.6 hPa
Clouds: Clear
Visibility: 10 miles , 16 km
2022/08/15 00:53 KUUU 150053Z AUTO 21005KT 10SM CLR 21/15 A3005 RMK AO2 SLP173 T02060150 $
 
KOQU - N. Kingston/Quon, Rhode Island, USA
Distance from station: SW 32mi, 52km
Updated: Sun, 14-Aug-2022 5:50pm EDT
NOT Current
Mostly cloudy
Mostly cloudy
 Wind from WSW
Wind: WSW 14 mph , 22 km/h
Temperature: 79°F , 26°C
Dew Point: 52°F , 11°C
Humidity: 39%
Barometer: 30.03 inHg , 1016.9 hPa
Clouds: Mostly cloudy
Visibility: 10 miles , 16 km
Cloud details: Mostly cloudy 20000 ft
2022/08/14 21:50 KOQU 142150Z AUTO 24012KT 10SM BKN200 26/11 A3003 RMK LAST
KBOS - Boston, Massachusetts, USA
Distance from station: N 33mi, 54km
Updated: Sun, 14-Aug-2022 8:54pm EDT
Mostly cloudy
Mostly cloudy
 Wind from S
Wind: S 6 mph , 9 km/h
Temperature: 72°F , 22°C
Dew Point: 57°F , 14°C
Humidity: 61%
Barometer: 30.04 inHg , 1017.3 hPa
Clouds: Mostly cloudy
Visibility: 10 miles , 16 km
Cloud details: Few Clouds 14000 ft
Mostly cloudy 21000 ft
2022/08/15 00:54 KBOS 150054Z 19005KT 10SM FEW140 BKN210 22/14 A3004 RMK AO2 SLP172 T02220139
 
KHYA - Hyannis, Massachusetts, USA
Distance from station: ESE 37mi, 59km
Updated: Sun, 14-Aug-2022 8:56pm EDT
Clear
Clear
 Wind from calm
Wind: Calm
Temperature: 66°F , 19°C
Dew Point: 57°F , 14°C
Humidity: 73%
Barometer: 30.03 inHg , 1016.9 hPa
Clouds: Clear
Visibility: 10 miles , 16 km
2022/08/15 00:56 KHYA 150056Z 00000KT 10SM CLR 19/14 A3003 RMK AO2 SLP171 T01940139
KMVY - Marthas Vineyard, Massachusetts, USA
Distance from station: SSE 37mi, 60km
Updated: Sun, 14-Aug-2022 8:53pm EDT
Clear
Clear
 Wind from calm
Wind: Calm
Temperature: 63°F , 17°C
Dew Point: 59°F , 15°C
Humidity: 88%
Barometer: 30.05 inHg , 1017.6 hPa
Clouds: Clear
Visibility: 10 miles , 16 km
2022/08/15 00:53 KMVY 150053Z 00000KT 10SM CLR 17/15 A3005 RMK AO2 SLP174 T01720150
 
KPVC - Provincetown, Massachusetts, USA
Distance from station: ENE 38mi, 61km
Updated: Tue, 09-Aug-2022 3:56pm EDT
NOT Current
Thunderstorm, Few clouds
Thunderstorm, Few clouds
 Wind from SSW
Wind: SSW 15 mph , 24 km/h
Temperature: 81°F , 27°C
Heat Index: 86°F , 30°C
Dew Point: 73°F , 23°C
Humidity: 79%
Barometer: 29.83 inHg , 1010.2 hPa
Summary: Thunderstorm
Clouds: Few Clouds
Visibility: 10 miles , 16 km
Cloud details: Few Clouds 7500 ft
2022/08/09 19:56 KPVC 091956Z AUTO 20013KT 10SM TS FEW075 27/23 A2983 RMK AO2 LTG DSNT W-N TSB46 SLP101 T02720233
KBED - Bedford, Massachusetts, USA
Distance from station: NNW 44mi, 72km
Updated: Sun, 14-Aug-2022 8:51pm EDT
Clear
Clear
 Wind from S
Wind: S 6 mph , 9 km/h
Temperature: 73°F , 23°C
Dew Point: 52°F , 11°C
Humidity: 47%
Barometer: 30.02 inHg , 1016.6 hPa
Clouds: Clear
Visibility: 10 miles , 16 km
2022/08/15 00:51 KBED 150051Z 17005KT 10SM CLR 23/11 A3002 RMK AO2 SLP174 T02280111
 
KBVY - Beverly, Massachusetts, USA
Distance from station: 0 48mi, 77km
Updated: Sun, 14-Aug-2022 8:53pm EDT
Clear
Clear
 Wind from S
Wind: S 5 mph , 7 km/h
Temperature: 70°F , 21°C
Dew Point: 57°F , 14°C
Humidity: 64%
Barometer: 30.02 inHg , 1016.6 hPa
Clouds: Clear
Visibility: 10 miles , 16 km
2022/08/15 00:53 KBVY 150053Z 17004KT 10SM CLR 21/14 A3002 RMK AO2 SLP161 T02060144
KCQX - Chatham, Massachusetts, USA
Distance from station: ESE 49mi, 80km
Updated: Sun, 14-Aug-2022 8:52pm EDT
Clear
Clear
 Wind from calm
Wind: Calm
Temperature: 70°F , 21°C
Dew Point: 59°F , 15°C
Humidity: 69%
Barometer: 30.05 inHg , 1017.6 hPa
Clouds: Clear
Visibility: 10 miles , 16 km
2022/08/15 00:52 KCQX 150052Z AUTO 00000KT 10SM CLR 21/15 A3005 RMK AO2 SLP178 T02060150